Time;durP1;ratioP1;P1;durP2;ratioP2;P2;SDS_P1;SDS_P2;PMS_P1;PMS_P2;Temp;Humidity;BMP_temperature;BMP_pressure;BME280_temperature;BME280_humidity;BME280_pressure;Samples;Min_cycle;Max_cycle;Signal;HPM_P1;HPM_P2
2022/08/21 00:06:37;;;;;;;0.40;0.22;;;15.30;98.80;;;;;;20482145;29;20452;-64
2022/08/21 00:16:41;;;;;;;0.25;0.25;;;15.10;98.90;;;;;;20482154;29;20106;-64
2022/08/21 00:26:44;;;;;;;0.43;0.30;;;15.10;99.10;;;;;;20481592;29;20063;-64
2022/08/21 00:36:46;;;;;;;0.63;0.20;;;15.20;98.80;;;;;;20497099;29;20117;-56
2022/08/21 00:46:50;;;;;;;0.20;0.20;;;15.20;98.70;;;;;;20471647;29;20182;-51
2022/08/21 00:56:57;;;;;;;0.30;0.20;;;15.20;98.60;;;;;;20401521;29;20556;-52
2022/08/21 01:06:59;;;;;;;0.40;0.22;;;15.20;98.80;;;;;;20480071;29;20035;-51
2022/08/21 01:17:03;;;;;;;0.28;0.20;;;15.20;98.90;;;;;;20479564;29;20118;-50
2022/08/21 01:27:06;;;;;;;0.15;0.10;;;15.00;99.10;;;;;;20464051;29;20105;-52
2022/08/21 01:37:09;;;;;;;0.20;0.10;;;15.10;99.20;;;;;;20495018;28;20452;-52
2022/08/21 01:47:16;;;;;;;0.32;0.22;;;15.00;99.00;;;;;;20479117;29;20398;-52
2022/08/21 01:57:18;;;;;;;0.32;0.20;;;14.90;99.30;;;;;;20397315;29;20320;-53
2022/08/21 02:07:21;;;;;;;0.30;0.20;;;14.70;99.70;;;;;;20412126;29;20043;-51
2022/08/21 02:17:23;;;;;;;0.40;0.15;;;14.60;99.90;;;;;;20440895;29;20043;-52
2022/08/21 02:27:26;;;;;;;0.15;0.10;;;14.50;99.90;;;;;;20491251;29;20035;-52
2022/08/21 02:37:28;;;;;;;0.10;0.10;;;14.50;99.90;;;;;;20505020;29;20090;-64
2022/08/21 02:47:32;;;;;;;0.35;0.10;;;14.40;99.90;;;;;;20473554;29;20039;-64
2022/08/21 02:57:35;;;;;;;0.30;0.20;;;14.50;99.90;;;;;;20408062;29;20429;-54
2022/08/21 03:07:39;;;;;;;0.20;0.20;;;14.40;99.90;;;;;;20486608;29;20031;-64
2022/08/21 03:17:42;;;;;;;0.20;0.20;;;14.60;99.90;;;;;;20485849;29;20452;-64
2022/08/21 03:27:44;;;;;;;0.10;0.10;;;14.60;99.90;;;;;;20485277;29;20035;-53
2022/08/21 03:37:47;;;;;;;0.30;0.20;;;14.40;99.90;;;;;;20484424;29;20035;-53
2022/08/21 03:47:59;;;;;;;0.63;0.20;;;14.20;99.90;;;;;;20447192;29;20509;-64
2022/08/21 03:58:02;;;;;;;0.20;0.20;;;14.20;99.90;;;;;;20403871;29;20040;-52
2022/08/21 04:08:06;;;;;;;0.30;0.20;;;14.10;99.90;;;;;;20481915;28;20035;-50
2022/08/21 04:18:09;;;;;;;0.30;0.20;;;14.10;99.90;;;;;;20497532;29;20047;-64
2022/08/21 04:28:12;;;;;;;0.70;0.20;;;14.40;99.90;;;;;;20481722;29;20145;-53
2022/08/21 04:38:14;;;;;;;0.30;0.20;;;14.40;99.90;;;;;;20482121;29;20035;-64
2022/08/21 04:48:21;;;;;;;0.55;0.30;;;14.40;99.90;;;;;;20476366;28;20047;-57
2022/08/21 04:58:27;;;;;;;0.50;0.20;;;14.40;99.90;;;;;;20401832;29;20043;-52
2022/08/21 05:08:29;;;;;;;0.10;0.10;;;14.50;99.90;;;;;;20480279;29;20043;-64
2022/08/21 05:18:35;;;;;;;0.10;0.05;;;14.60;99.90;;;;;;20489711;28;20516;-64
2022/08/21 05:28:37;;;;;;;0.10;0.10;;;14.60;99.90;;;;;;20494621;29;20400;-64
2022/08/21 05:38:40;;;;;;;0.35;0.10;;;14.80;99.90;;;;;;20493693;29;20035;-52
2022/08/21 05:48:45;;;;;;;2.50;0.10;;;15.00;99.70;;;;;;20452870;29;20043;-52
2022/08/21 05:58:48;;;;;;;0.00;0.00;;;15.10;99.50;;;;;;20413801;29;20552;-64
2022/08/21 06:08:50;;;;;;;0.38;0.10;;;15.30;98.70;;;;;;20491047;29;20489;-51
2022/08/21 06:18:53;;;;;;;0.80;0.10;;;15.40;98.90;;;;;;20489564;29;20059;-49
2022/08/21 06:28:56;;;;;;;0.45;0.10;;;15.40;98.80;;;;;;20489327;28;20043;-52
2022/08/21 06:38:58;;;;;;;0.20;0.10;;;15.70;98.30;;;;;;20489143;29;20034;-52
2022/08/21 06:49:02;;;;;;;0.10;0.10;;;17.30;96.90;;;;;;20478111;28;20409;-53
2022/08/21 06:59:05;;;;;;;0.15;0.10;;;18.50;94.80;;;;;;20413159;29;20039;-67
2022/08/21 07:09:09;;;;;;;0.40;0.10;;;18.90;93.80;;;;;;20487077;29;20071;-50
2022/08/21 07:19:12;;;;;;;0.35;0.10;;;19.20;92.70;;;;;;20485767;29;20066;-48
2022/08/21 07:29:15;;;;;;;0.10;0.08;;;19.30;91.80;;;;;;20483459;29;20098;-51
2022/08/21 07:39:17;;;;;;;0.45;0.22;;;19.70;92.30;;;;;;20483411;28;20047;-49
2022/08/21 07:49:21;;;;;;;0.52;0.10;;;19.90;91.30;;;;;;20431800;29;20044;-51
2022/08/21 07:59:24;;;;;;;0.20;0.10;;;20.00;90.40;;;;;;20409543;29;20472;-67
2022/08/21 08:09:26;;;;;;;0.55;0.20;;;20.00;90.80;;;;;;20482009;28;20043;-52
2022/08/21 08:19:30;;;;;;;0.75;0.00;;;20.40;90.60;;;;;;20465906;29;20059;-61
2022/08/21 08:29:33;;;;;;;0.17;0.10;;;20.50;89.60;;;;;;20423904;29;20095;-54
2022/08/21 08:39:35;;;;;;;0.20;0.10;;;20.70;87.00;;;;;;20480931;29;20035;-50
2022/08/21 08:50:03;;;;;;;0.17;0.10;;;21.00;85.50;;;;;;20453125;29;20039;-69
2022/08/21 09:00:13;;;;;;;0.10;0.10;;;21.20;86.40;;;;;;20428233;29;20042;-68
2022/08/21 09:10:23;;;;;;;0.22;0.10;;;21.30;86.10;;;;;;20480239;29;20039;-69
2022/08/21 09:21:00;;;;;;;0.28;0.10;;;21.50;84.10;;;;;;20494927;29;20059;-67
2022/08/21 09:31:07;;;;;;;0.10;0.10;;;21.30;81.90;;;;;;20494433;29;20043;-68
2022/08/21 09:41:10;;;;;;;0.10;0.10;;;21.40;84.90;;;;;;20493906;29;20087;-53
2022/08/21 09:51:36;;;;;;;0.20;0.10;;;21.80;81.30;;;;;;20448474;29;20527;-51
2022/08/21 10:01:45;;;;;;;0.10;0.10;;;21.40;81.50;;;;;;20436075;29;20099;-52
2022/08/21 10:12:07;;;;;;;0.17;0.10;;;22.10;79.40;;;;;;20491251;29;20042;-51
2022/08/21 10:22:32;;;;;;;0.22;0.10;;;22.00;81.60;;;;;;20507643;29;20118;-52
2022/08/21 10:32:41;;;;;;;0.10;0.10;;;22.50;78.60;;;;;;20489447;29;20090;-54
2022/08/21 10:43:06;;;;;;;0.10;0.10;;;23.10;83.10;;;;;;20489044;28;20040;-48
2022/08/21 10:53:16;;;;;;;0.65;0.10;;;24.50;83.70;;;;;;20480701;28;20032;-57
2022/08/21 11:03:25;;;;;;;0.10;0.10;;;24.70;81.40;;;;;;20489981;28;20497;-61
2022/08/21 11:13:48;;;;;;;0.08;0.00;;;24.90;81.80;;;;;;20466254;28;20059;-48
2022/08/21 11:24:14;;;;;;;0.15;0.10;;;25.50;81.50;;;;;;20422639;29;20044;-59
2022/08/21 11:34:25;;;;;;;0.10;0.10;;;25.60;76.50;;;;;;20466693;29;20118;-54
2022/08/21 11:44:57;;;;;;;0.80;0.10;;;26.10;77.60;;;;;;20440694;28;20040;-58
2022/08/21 11:55:30;;;;;;;0.15;0.10;;;26.40;75.30;;;;;;20435368;28;20066;-47
2022/08/21 12:05:52;;;;;;;0.08;0.08;;;26.00;72.90;;;;;;20461930;29;20048;-49
2022/08/21 12:16:14;;;;;;;2.65;0.20;;;25.80;68.80;;;;;;20439824;28;20035;-49
2022/08/21 12:26:25;;;;;;;0.10;0.10;;;25.80;72.50;;;;;;20447043;28;20442;-46
2022/08/21 12:37:00;;;;;;;0.10;0.10;;;25.80;63.50;;;;;;20427216;28;20047;-46
2022/08/21 12:47:12;;;;;;;0.10;0.10;;;25.50;71.20;;;;;;20452335;29;20075;-63
2022/08/21 12:57:22;;;;;;;0.03;0.03;;;26.00;62.30;;;;;;20480787;29;20055;-51
2022/08/21 13:07:27;;;;;;;;;;;26.40;64.10;;;;;;20421440;29;20044;-47
2022/08/21 13:17:34;;;;;;;0.10;0.10;;;26.80;69.50;;;;;;20447076;28;20280;-64
2022/08/21 13:27:37;;;;;;;0.17;0.10;;;27.10;71.80;;;;;;20427170;28;20028;-59
2022/08/21 13:37:42;;;;;;;0.75;0.40;;;27.40;72.70;;;;;;20478486;28;20039;-59
2022/08/21 13:47:48;;;;;;;0.47;0.30;;;27.50;81.40;;;;;;20447098;28;20035;-57
2022/08/21 13:58:00;;;;;;;1.25;0.38;;;27.50;83.30;;;;;;20440740;28;20039;-57
2022/08/21 14:08:10;;;;;;;1.15;0.45;;;27.30;85.00;;;;;;20429873;28;20036;-59
2022/08/21 14:18:19;;;;;;;0.30;0.30;;;27.20;87.30;;;;;;20440303;28;20110;-58
2022/08/21 14:28:32;;;;;;;0.60;0.52;;;25.20;88.00;;;;;;20485176;28;20036;-58
2022/08/21 14:38:38;;;;;;;0.88;0.60;;;23.20;85.80;;;;;;20475739;28;20043;-54
2022/08/21 14:48:40;;;;;;;1.10;0.40;;;22.10;90.50;;;;;;20461578;28;20039;-62
2022/08/21 14:58:48;;;;;;;0.47;0.45;;;21.20;92.30;;;;;;20401534;29;20074;-53
2022/08/21 15:08:51;;;;;;;1.10;0.50;;;20.70;93.20;;;;;;20399456;29;20121;-54
2022/08/21 15:18:54;;;;;;;1.23;0.50;;;21.20;92.80;;;;;;20406021;29;20067;-54
2022/08/21 15:28:59;;;;;;;0.40;0.40;;;21.00;92.90;;;;;;20409148;29;20098;-63
2022/08/21 15:39:01;;;;;;;1.58;0.63;;;20.70;94.10;;;;;;20500329;29;20040;-51
2022/08/21 15:49:04;;;;;;;1.25;0.75;;;20.20;95.80;;;;;;20467744;28;20111;-53
2022/08/21 15:59:13;;;;;;;0.95;0.40;;;20.80;95.90;;;;;;20405498;29;20066;-65
2022/08/21 16:09:17;;;;;;;0.70;0.60;;;21.40;93.90;;;;;;20481574;29;20094;-54
2022/08/21 16:19:20;;;;;;;2.22;0.80;;;21.90;92.40;;;;;;20481596;29;20067;-53
2022/08/21 16:29:23;;;;;;;1.13;0.68;;;20.70;93.60;;;;;;20481571;29;20098;-55
2022/08/21 16:39:26;;;;;;;4.25;0.98;;;19.50;96.60;;;;;;20496481;29;20397;-64
2022/08/21 16:49:28;;;;;;;1.50;0.70;;;18.80;98.00;;;;;;20466274;28;20043;-52
2022/08/21 16:59:30;;;;;;;1.58;0.80;;;18.10;99.90;;;;;;20407460;29;20027;-54
2022/08/21 17:09:34;;;;;;;1.80;0.70;;;17.50;99.90;;;;;;20499354;28;20047;-63
2022/08/21 17:19:37;;;;;;;3.13;0.85;;;17.10;99.90;;;;;;20446571;28;20401;-62
2022/08/21 17:29:40;;;;;;;1.23;0.93;;;16.80;99.90;;;;;;20423067;29;20043;-54
2022/08/21 17:39:43;;;;;;;2.63;1.00;;;16.50;99.90;;;;;;20509777;29;20043;-52
2022/08/21 17:49:45;;;;;;;1.70;1.20;;;16.30;99.90;;;;;;20455045;29;20498;-55
2022/08/21 17:59:48;;;;;;;1.40;1.00;;;16.10;99.90;;;;;;20415538;29;20039;-65
2022/08/21 18:09:51;;;;;;;1.10;0.88;;;15.70;99.90;;;;;;20491614;29;20075;-65
2022/08/21 18:19:54;;;;;;;1.80;0.73;;;15.50;99.90;;;;;;20489901;28;20509;-64
2022/08/21 18:29:59;;;;;;;0.68;0.63;;;15.40;99.90;;;;;;20489979;29;20043;-65
2022/08/21 18:40:02;;;;;;;2.58;0.65;;;15.90;99.90;;;;;;20505350;29;20327;-52
2022/08/21 18:50:07;;;;;;;0.47;0.47;;;15.60;99.90;;;;;;20469851;28;20094;-65
2022/08/21 19:00:16;;;;;;;3.20;0.60;;;15.30;99.90;;;;;;20418762;29;20090;-55
2022/08/21 19:10:21;;;;;;;1.80;0.77;;;15.10;99.90;;;;;;20487234;29;20043;-54
2022/08/21 19:20:35;;;;;;;2.03;1.20;;;14.90;99.90;;;;;;20501832;29;20481;-64
2022/08/21 19:30:45;;;;;;;2.90;1.13;;;14.70;99.90;;;;;;20484597;29;20035;-65
2022/08/21 19:40:48;;;;;;;;;;;14.70;99.90;;;;;;20469130;29;20163;-65
2022/08/21 19:50:52;;;;;;;1.88;1.00;;;14.50;99.90;;;;;;20408389;29;20332;-65
2022/08/21 20:00:54;;;;;;;3.08;1.40;;;14.50;99.90;;;;;;20421772;29;20035;-65
2022/08/21 20:11:00;;;;;;;3.03;1.55;;;14.50;99.90;;;;;;20482748;28;20764;-53
2022/08/21 20:21:05;;;;;;;3.08;1.35;;;14.60;99.90;;;;;;20481921;29;20056;-65
2022/08/21 20:31:09;;;;;;;2.45;1.20;;;14.80;99.90;;;;;;20497546;29;20039;-56
2022/08/21 20:41:13;;;;;;;3.28;0.82;;;15.20;99.90;;;;;;20480988;29;20553;-65
2022/08/21 20:51:28;;;;;;;1.17;0.80;;;15.30;99.90;;;;;;20450511;28;20040;-56
2022/08/21 21:01:33;;;;;;;1.75;1.02;;;15.30;99.90;;;;;;20481263;29;20110;-65
2022/08/21 21:11:45;;;;;;;1.25;1.08;;;15.20;99.90;;;;;;20424157;28;20047;-57
2022/08/21 21:21:55;;;;;;;2.30;1.20;;;14.90;99.90;;;;;;20407136;28;20039;-53
2022/08/21 21:31:59;;;;;;;3.47;1.70;;;14.60;99.90;;;;;;20404455;29;20051;-63
2022/08/21 21:42:01;;;;;;;3.83;2.08;;;14.30;99.90;;;;;;20396838;29;20098;-64
2022/08/21 21:52:34;;;;;;;2.88;1.90;;;14.20;99.90;;;;;;20474162;29;20066;-69
2022/08/21 22:02:58;;;;;;;4.85;2.53;;;14.20;99.90;;;;;;20505097;28;20039;-61
2022/08/21 22:13:07;;;;;;;2.47;1.60;;;14.20;99.90;;;;;;20503466;28;20078;-51
2022/08/21 22:23:17;;;;;;;2.45;1.52;;;14.40;99.90;;;;;;20485156;29;20144;-64
2022/08/21 22:33:23;;;;;;;3.00;1.03;;;14.70;99.90;;;;;;20502080;29;20106;-53
2022/08/21 22:43:27;;;;;;;3.10;2.30;;;15.00;99.90;;;;;;20470567;29;20035;-64
2022/08/21 22:53:33;;;;;;;2.90;2.08;;;15.10;99.90;;;;;;20501126;29;20091;-53
2022/08/21 23:03:46;;;;;;;4.07;1.83;;;15.00;99.90;;;;;;20485597;29;20492;-53
2022/08/21 23:13:51;;;;;;;5.07;2.45;;;14.70;99.90;;;;;;20498967;28;20504;-52
2022/08/21 23:24:40;;;;;;;2.88;1.80;;;14.40;99.90;;;;;;20500388;29;20039;-52
2022/08/21 23:34:51;;;;;;;2.95;1.90;;;14.30;99.90;;;;;;20482040;29;20043;-53
2022/08/21 23:45:15;;;;;;;4.38;2.25;;;14.20;99.90;;;;;;20496479;29;20393;-64
2022/08/21 23:55:57;;;;;;;4.63;2.22;;;14.20;99.90;;;;;;20481166;29;20047;-65
